createdAt,value
2023-01-09T00:02:03.528Z,7.00
2023-01-09T00:04:30.243Z,6.95
2023-01-09T00:06:56.853Z,6.13
2023-01-09T00:09:24.371Z,6.10
2023-01-09T00:11:51.889Z,6.15
2023-01-09T00:14:19.287Z,6.00
2023-01-09T00:16:46.151Z,6.70
2023-01-09T00:19:13.238Z,6.40
2023-01-09T00:21:40.100Z,6.13
2023-01-09T00:24:07.224Z,5.82
2023-01-09T00:26:34.563Z,5.78
2023-01-09T00:29:01.249Z,6.10
2023-01-09T00:31:28.197Z,5.30
2023-01-09T00:34:04.482Z,6.13
2023-01-09T00:36:31.177Z,5.95
2023-01-09T00:38:58.136Z,5.82
2023-01-09T00:41:30.021Z,6.15
2023-01-09T00:44:04.671Z,5.38
2023-01-09T00:46:36.392Z,6.57
2023-01-09T00:49:05.528Z,6.38
2023-01-09T00:51:32.205Z,6.05
2023-01-09T00:53:59.480Z,5.75
2023-01-09T00:56:26.170Z,5.50
2023-01-09T00:58:53.200Z,5.28
2023-01-09T01:01:19.969Z,5.35
2023-01-09T01:03:46.714Z,5.43
2023-01-09T01:06:51.834Z,5.63
2023-01-09T01:09:18.469Z,5.50
2023-01-09T01:11:45.090Z,5.25
2023-01-09T01:14:11.740Z,4.90
2023-01-09T01:16:38.401Z,5.10
2023-01-09T01:19:05.004Z,5.82
2023-01-09T01:21:31.627Z,5.28
2023-01-09T01:23:58.271Z,5.20
2023-01-09T01:26:24.859Z,5.15
2023-01-09T01:28:51.532Z,5.07
2023-01-09T01:31:19.404Z,5.25
2023-01-09T01:33:46.181Z,5.65
2023-01-09T01:36:12.808Z,5.22
2023-01-09T01:38:39.460Z,6.18
2023-01-09T01:41:07.141Z,4.75
2023-01-09T01:43:54.574Z,4.00
2023-01-09T01:46:21.930Z,5.13
2023-01-09T01:48:52.566Z,5.10
2023-01-09T01:51:23.253Z,4.97
2023-01-09T01:53:53.774Z,4.38
2023-01-09T01:56:28.837Z,4.40
2023-01-09T01:59:01.749Z,4.72
2023-01-09T02:01:30.778Z,4.40
2023-01-09T02:04:01.105Z,4.35
2023-01-09T02:06:30.196Z,4.10
2023-01-09T02:08:57.799Z,4.18
2023-01-09T02:11:24.728Z,4.53
2023-01-09T02:13:51.944Z,4.63
2023-01-09T02:16:38.225Z,4.40
2023-01-09T02:19:04.757Z,4.05
2023-01-09T02:21:46.996Z,4.53
2023-01-09T02:27:04.650Z,4.07
2023-01-09T02:30:09.011Z,4.03
2023-01-09T02:33:06.212Z,4.57
2023-01-09T02:36:04.203Z,4.70
2023-01-09T02:38:39.602Z,4.28
2023-01-09T02:41:19.254Z,4.18
2023-01-09T02:43:45.888Z,4.45
2023-01-09T02:46:22.633Z,4.40
2023-01-09T02:48:52.608Z,4.80
2023-01-09T02:51:29.080Z,4.10
2023-01-09T02:54:11.874Z,3.90
2023-01-09T02:57:03.983Z,3.85
2023-01-09T02:59:42.100Z,4.22
2023-01-09T03:02:17.069Z,3.80
2023-01-09T03:04:55.062Z,3.97
2023-01-09T03:07:36.469Z,3.88
2023-01-09T03:10:20.815Z,4.00
2023-01-09T03:12:50.542Z,3.88
2023-01-09T03:15:19.767Z,3.95
2023-01-09T03:17:50.466Z,4.25
2023-01-09T03:20:22.409Z,4.15
2023-01-09T03:23:09.740Z,3.90
2023-01-09T03:25:36.371Z,4.18
2023-01-09T03:28:13.056Z,3.90
2023-01-09T03:30:39.635Z,4.10
2023-01-09T03:33:06.280Z,3.40
2023-01-09T03:35:32.891Z,3.67
2023-01-09T03:37:59.472Z,3.15
2023-01-09T03:40:26.085Z,3.70
2023-01-09T03:42:52.693Z,3.45
2023-01-09T03:45:19.369Z,3.83
2023-01-09T03:47:45.969Z,3.45
2023-01-09T03:50:12.603Z,3.28
2023-01-09T03:52:39.172Z,3.60
2023-01-09T03:55:06.052Z,3.38
2023-01-09T03:57:32.927Z,3.97
2023-01-09T03:59:59.595Z,3.25
2023-01-09T04:02:26.285Z,3.58
2023-01-09T04:04:52.869Z,3.30
2023-01-09T04:07:19.460Z,3.80
2023-01-09T04:09:46.035Z,3.40
2023-01-09T04:12:12.922Z,3.33
2023-01-09T04:14:39.572Z,3.10
2023-01-09T04:17:06.172Z,3.20
2023-01-09T04:19:32.783Z,3.50
2023-01-09T04:21:59.387Z,3.47
2023-01-09T04:24:26.020Z,3.35
2023-01-09T04:26:52.704Z,2.97
2023-01-09T04:29:19.375Z,3.45
2023-01-09T04:31:46.047Z,2.60
2023-01-09T04:34:12.801Z,2.95
2023-01-09T04:36:40.058Z,3.40
2023-01-09T04:39:06.655Z,3.05
2023-01-09T04:41:51.794Z,2.85
2023-01-09T04:44:26.290Z,2.90
2023-01-09T04:46:53.458Z,2.70
2023-01-09T04:49:20.520Z,2.80
2023-01-09T04:51:47.168Z,2.60
2023-01-09T04:54:13.795Z,2.83
2023-01-09T04:56:40.401Z,2.90
2023-01-09T04:59:07.507Z,2.92
2023-01-09T05:01:34.570Z,3.20
2023-01-09T05:04:01.526Z,2.92
2023-01-09T05:06:28.313Z,2.97
2023-01-09T05:08:56.466Z,2.88
2023-01-09T05:11:25.422Z,2.53
2023-01-09T05:13:52.652Z,2.63
2023-01-09T05:16:20.347Z,2.33
2023-01-09T05:18:47.329Z,2.58
2023-01-09T05:21:14.173Z,2.40
2023-01-09T05:23:40.783Z,2.38
2023-01-09T05:26:07.377Z,2.75
2023-01-09T05:28:34.051Z,2.70
2023-01-09T05:31:00.653Z,2.67
2023-01-09T05:33:27.389Z,2.83
2023-01-09T05:35:53.970Z,2.78
2023-01-09T05:38:20.650Z,2.75
2023-01-09T05:40:47.275Z,2.47
2023-01-09T05:43:13.929Z,2.47
2023-01-09T05:45:40.523Z,2.78
2023-01-09T05:48:07.258Z,2.42
2023-01-09T05:50:33.927Z,2.40
2023-01-09T05:53:00.530Z,2.53
2023-01-09T05:55:27.206Z,2.05
2023-01-09T05:57:53.844Z,2.30
2023-01-09T06:00:20.715Z,2.42
2023-01-09T06:02:47.312Z,2.50
2023-01-09T06:05:13.992Z,2.13
2023-01-09T06:07:40.741Z,2.35
2023-01-09T06:10:12.424Z,2.40
2023-01-09T06:12:39.581Z,2.47
2023-01-09T06:15:08.865Z,2.00
2023-01-09T06:17:35.760Z,2.47
2023-01-09T06:20:02.515Z,2.30
2023-01-09T06:22:29.088Z,2.30
2023-01-09T06:24:55.746Z,2.28
2023-01-09T06:27:22.321Z,2.10
2023-01-09T06:29:48.969Z,1.25
2023-01-09T06:32:15.729Z,1.83
2023-01-09T06:34:42.355Z,1.98
2023-01-09T06:37:09.192Z,2.40
2023-01-09T06:39:35.807Z,2.10
2023-01-09T06:42:02.490Z,1.90
2023-01-09T06:44:29.114Z,1.83
2023-01-09T06:46:55.765Z,2.00
2023-01-09T06:49:24.724Z,2.20
2023-01-09T06:51:51.891Z,2.00
2023-01-09T06:54:19.256Z,1.77
2023-01-09T06:56:45.870Z,1.67
2023-01-09T06:59:12.685Z,2.00
2023-01-09T07:01:39.832Z,1.80
2023-01-09T07:04:11.027Z,1.85
2023-01-09T07:06:38.399Z,1.53
2023-01-09T07:09:08.116Z,1.80
2023-01-09T07:11:34.672Z,1.80
2023-01-09T07:14:01.270Z,1.77
2023-01-09T07:16:27.842Z,1.27
2023-01-09T07:18:54.834Z,1.83
2023-01-09T07:21:21.608Z,1.85
2023-01-09T07:23:48.243Z,1.83
2023-01-09T07:26:14.819Z,1.85
2023-01-09T07:28:41.381Z,1.98
2023-01-09T07:31:08.390Z,1.42
2023-01-09T07:33:35.486Z,1.70
2023-01-09T07:36:02.194Z,1.92
2023-01-09T07:38:28.870Z,1.60
2023-01-09T07:40:55.581Z,1.80
2023-01-09T07:43:22.238Z,1.92
2023-01-09T07:45:48.863Z,1.73
2023-01-09T07:48:15.558Z,1.80
2023-01-09T07:50:42.232Z,1.70
2023-01-09T07:53:08.851Z,1.88
2023-01-09T07:55:35.484Z,1.40
2023-01-09T07:58:02.149Z,1.90
2023-01-09T08:00:29.218Z,2.08
2023-01-09T08:02:56.336Z,1.45
2023-01-09T08:05:23.015Z,1.67
2023-01-09T08:07:51.380Z,1.90
2023-01-09T08:10:19.663Z,1.92
2023-01-09T08:12:47.558Z,1.38
2023-01-09T08:15:14.233Z,1.60
2023-01-09T08:17:42.990Z,1.90
2023-01-09T08:20:12.121Z,1.83
2023-01-09T08:22:42.879Z,1.50
2023-01-09T08:25:12.254Z,1.50
2023-01-09T08:27:39.536Z,1.60
2023-01-09T08:30:06.959Z,1.88
2023-01-09T08:32:33.583Z,2.00
2023-01-09T08:35:00.297Z,1.65
2023-01-09T08:37:27.246Z,1.58
2023-01-09T08:39:53.851Z,1.15
2023-01-09T08:42:39.185Z,1.40
2023-01-09T08:45:25.624Z,1.52
2023-01-09T08:47:52.604Z,1.38
2023-01-09T08:50:19.299Z,1.45
2023-01-09T08:52:45.956Z,1.45
2023-01-09T08:55:12.606Z,1.30
2023-01-09T08:57:48.638Z,1.15
2023-01-09T09:00:15.895Z,1.60
2023-01-09T09:02:42.495Z,1.67
2023-01-09T09:05:09.494Z,1.30
2023-01-09T09:07:36.360Z,1.42
2023-01-09T09:10:03.077Z,1.55
2023-01-09T09:12:29.715Z,1.30
2023-01-09T09:15:16.305Z,1.20
2023-01-09T09:17:44.393Z,1.27
2023-01-09T09:20:12.063Z,1.30
2023-01-09T09:22:38.767Z,1.55
2023-01-09T09:25:05.881Z,1.20
2023-01-09T09:27:33.342Z,0.93
2023-01-09T09:30:00.016Z,1.17
2023-01-09T09:32:26.736Z,1.13
2023-01-09T09:34:53.389Z,1.52
2023-01-09T09:37:20.023Z,1.50
2023-01-09T09:39:46.646Z,1.33
2023-01-09T09:42:59.839Z,1.30
2023-01-09T09:45:51.348Z,1.00
2023-01-09T09:48:32.224Z,1.30
2023-01-09T09:51:17.763Z,1.10
2023-01-09T09:54:27.272Z,1.08
2023-01-09T09:56:58.049Z,1.10
2023-01-09T09:59:37.068Z,1.10
2023-01-09T10:02:24.654Z,1.13
2023-01-09T10:04:59.133Z,1.00
2023-01-09T10:07:32.220Z,1.33
2023-01-09T10:10:07.034Z,1.10
2023-01-09T10:12:55.751Z,1.27
2023-01-09T10:15:31.665Z,1.38
2023-01-09T10:18:06.817Z,1.20
2023-01-09T10:20:59.779Z,1.15
2023-01-09T10:23:59.612Z,1.13
2023-01-09T10:26:37.559Z,1.10
2023-01-09T10:29:29.103Z,1.08
2023-01-09T10:32:27.289Z,0.93
2023-01-09T10:35:08.131Z,1.15
2023-01-09T10:37:40.229Z,1.08
2023-01-09T10:42:52.604Z,1.10
2023-01-09T10:45:21.488Z,1.10
2023-01-09T10:47:48.783Z,1.30
2023-01-09T10:50:20.379Z,1.08
2023-01-09T10:52:50.826Z,1.00
2023-01-09T10:55:45.195Z,0.80
2023-01-09T10:58:17.996Z,1.02
2023-01-09T11:00:46.282Z,1.30
2023-01-09T11:03:14.528Z,1.00
2023-01-09T11:05:42.168Z,1.60
2023-01-09T11:08:08.723Z,1.77
2023-01-09T11:10:53.188Z,4.50
2023-01-09T11:13:47.127Z,6.22
2023-01-09T11:16:19.998Z,3.80
2023-01-09T11:18:55.600Z,3.97
2023-01-09T11:21:28.072Z,3.25
2023-01-09T11:23:55.784Z,3.35
2023-01-09T11:26:25.684Z,3.85
2023-01-09T11:29:06.067Z,3.05
2023-01-09T11:31:33.172Z,3.53
2023-01-09T11:34:00.102Z,3.47
2023-01-09T11:36:27.174Z,3.08
2023-01-09T11:38:56.650Z,3.22
2023-01-09T11:41:25.934Z,3.35
2023-01-09T11:43:56.810Z,3.10
2023-01-09T11:46:38.221Z,3.20
2023-01-09T11:49:20.733Z,3.10
2023-01-09T11:52:15.898Z,2.58
2023-01-09T11:54:58.517Z,2.70
2023-01-09T11:57:26.028Z,2.60
2023-01-09T11:59:55.789Z,2.33
2023-01-09T12:02:22.420Z,2.50
2023-01-09T12:05:05.694Z,2.30
2023-01-09T12:08:12.179Z,2.78
2023-01-09T12:10:58.319Z,2.63
2023-01-09T12:13:28.055Z,2.10
2023-01-09T12:16:21.912Z,2.70
2023-01-09T12:18:57.522Z,2.72
2023-01-09T12:21:32.339Z,2.42
2023-01-09T12:24:20.629Z,2.50
2023-01-09T12:26:55.936Z,1.98
2023-01-09T12:30:26.628Z,2.35
2023-01-09T12:33:30.780Z,2.15
2023-01-09T12:36:13.671Z,2.05
2023-01-09T12:38:55.045Z,2.13
2023-01-09T12:41:47.740Z,2.50
2023-01-09T12:44:30.763Z,2.00
2023-01-09T12:47:28.371Z,2.00
2023-01-09T12:50:18.801Z,2.55
2023-01-09T12:52:54.445Z,3.20
2023-01-09T12:55:27.329Z,2.55
2023-01-09T12:57:57.856Z,2.45
2023-01-09T13:00:29.938Z,2.20
2023-01-09T13:05:48.821Z,1.98
2023-01-09T13:08:40.560Z,2.40
2023-01-09T13:11:19.851Z,1.95
2023-01-09T13:14:26.051Z,2.17
2023-01-09T13:16:56.929Z,1.92
2023-01-09T13:19:28.996Z,2.03
2023-01-09T13:24:26.651Z,1.85
2023-01-09T13:26:57.579Z,2.75
2023-01-09T13:29:32.961Z,1.85
2023-01-09T13:32:37.654Z,2.15
2023-01-09T13:35:04.689Z,2.50
2023-01-09T13:37:34.756Z,1.88
2023-01-09T13:40:19.115Z,1.63
2023-01-09T13:42:56.890Z,2.15
2023-01-09T13:45:25.911Z,1.83
2023-01-09T13:48:19.813Z,1.85
2023-01-09T13:50:47.602Z,1.80
2023-01-09T13:53:20.119Z,1.45
2023-01-09T13:55:59.522Z,1.60
2023-01-09T13:58:31.828Z,1.70
2023-01-09T14:03:37.308Z,1.60
2023-01-09T14:06:11.842Z,1.60
2023-01-09T14:08:41.817Z,1.50
2023-01-09T14:11:09.515Z,1.58
2023-01-09T14:13:43.087Z,1.50
2023-01-09T14:16:24.900Z,1.42
2023-01-09T14:18:57.464Z,1.52
2023-01-09T14:21:24.503Z,1.70
2023-01-09T14:24:06.182Z,1.50
2023-01-09T14:26:49.092Z,1.38
2023-01-09T14:32:22.597Z,1.70
2023-01-09T14:35:15.146Z,1.10
2023-01-09T14:37:43.612Z,1.73
2023-01-09T14:40:22.891Z,1.35
2023-01-09T14:42:54.245Z,1.30
2023-01-09T14:45:26.853Z,1.50
2023-01-09T14:48:01.580Z,1.20
2023-01-09T14:50:38.883Z,1.30
2023-01-09T14:53:12.003Z,1.50
2023-01-09T14:55:48.635Z,1.70
2023-01-09T14:58:35.368Z,1.23
2023-01-09T15:01:06.033Z,1.20
2023-01-09T15:03:58.784Z,1.27
2023-01-09T15:06:32.339Z,1.52
2023-01-09T15:09:01.717Z,1.77
2023-01-09T15:11:29.359Z,1.30
2023-01-09T15:14:05.205Z,1.50
2023-01-09T15:16:32.663Z,1.40
2023-01-09T15:19:06.716Z,1.60
2023-01-09T15:21:33.670Z,1.27
2023-01-09T15:24:21.427Z,1.50
2023-01-09T15:26:56.375Z,1.40
2023-01-09T15:29:23.374Z,1.50
2023-01-09T15:32:07.183Z,1.55
2023-01-09T15:34:34.872Z,1.33
2023-01-09T15:37:03.031Z,1.20
2023-01-09T15:39:35.811Z,1.27
2023-01-09T15:42:21.733Z,1.23
2023-01-09T15:44:52.061Z,1.30
2023-01-09T15:47:29.267Z,1.20
2023-01-09T15:49:56.813Z,1.13
2023-01-09T15:52:24.078Z,1.08
2023-01-09T15:54:51.129Z,1.33
2023-01-09T15:57:26.696Z,1.30
2023-01-09T16:02:40.858Z,0.80
2023-01-09T16:05:14.091Z,1.02
2023-01-09T16:07:49.477Z,0.65
2023-01-09T16:10:26.417Z,0.70
2023-01-09T16:12:54.525Z,0.70
2023-01-09T16:15:22.009Z,0.90
2023-01-09T16:18:13.398Z,1.08
2023-01-09T16:20:39.976Z,1.00
2023-01-09T16:23:20.733Z,0.90
2023-01-09T16:25:47.552Z,1.02
2023-01-09T16:28:27.121Z,1.15
2023-01-09T16:31:00.514Z,1.30
2023-01-09T16:33:29.377Z,1.00
2023-01-09T16:35:56.476Z,0.88
2023-01-09T16:38:24.693Z,1.10
2023-01-09T16:41:33.739Z,1.50
2023-01-09T16:44:00.809Z,0.88
2023-01-09T16:46:28.277Z,1.00
2023-01-09T16:48:55.354Z,0.82
2023-01-09T16:51:22.891Z,1.08
2023-01-09T16:53:49.989Z,0.98
2023-01-09T16:56:27.803Z,0.80
2023-01-09T16:58:54.773Z,1.58
2023-01-09T17:01:22.960Z,1.13
2023-01-09T17:03:50.303Z,0.95
2023-01-09T17:06:31.723Z,0.90
2023-01-09T17:08:58.392Z,1.00
2023-01-09T17:11:31.985Z,0.85
2023-01-09T17:13:59.760Z,0.70
2023-01-09T17:16:27.506Z,0.90
2023-01-09T17:18:54.530Z,1.15
2023-01-09T17:21:26.800Z,1.02
2023-01-09T17:24:28.749Z,0.93
2023-01-09T17:27:14.327Z,0.70
2023-01-09T17:29:40.967Z,0.90
2023-01-09T17:32:08.984Z,1.10
2023-01-09T17:34:35.568Z,1.00
2023-01-09T17:37:04.377Z,0.95
2023-01-09T17:39:31.260Z,1.13
2023-01-09T17:41:58.983Z,0.90
2023-01-09T17:44:26.377Z,0.85
2023-01-09T17:46:53.030Z,1.00
2023-01-09T17:49:21.635Z,0.82
2023-01-09T17:51:48.577Z,0.80
2023-01-09T17:54:15.335Z,1.48
2023-01-09T17:56:45.017Z,1.02
2023-01-09T17:59:13.478Z,1.00
2023-01-09T18:01:40.969Z,0.80
2023-01-09T18:04:07.792Z,1.10
2023-01-09T18:06:36.429Z,1.35
2023-01-09T18:09:04.600Z,0.80
2023-01-09T18:11:31.461Z,0.90
2023-01-09T18:13:58.305Z,0.75
2023-01-09T18:16:27.485Z,1.00
2023-01-09T18:18:57.668Z,1.15
2023-01-09T18:21:26.100Z,0.80
2023-01-09T18:23:52.742Z,0.95
2023-01-09T18:26:22.194Z,0.88
2023-01-09T18:28:51.244Z,1.10
2023-01-09T18:31:22.620Z,0.70
2023-01-09T18:33:53.531Z,1.10
2023-01-09T18:36:22.276Z,1.00
2023-01-09T18:38:53.213Z,0.98
2023-01-09T18:41:20.988Z,1.10
2023-01-09T18:43:56.117Z,0.90
2023-01-09T18:46:26.118Z,0.95
2023-01-09T18:48:57.531Z,1.10
2023-01-09T18:51:25.950Z,0.80
2023-01-09T18:53:53.698Z,1.15
2023-01-09T18:56:21.022Z,1.15
2023-01-09T18:58:48.749Z,0.90
2023-01-09T19:01:16.167Z,1.08
2023-01-09T19:03:42.918Z,1.00
2023-01-09T19:06:10.207Z,0.80
2023-01-09T19:08:36.826Z,0.80
2023-01-09T19:11:04.044Z,1.13
2023-01-09T19:13:32.470Z,0.95
2023-01-09T19:16:00.156Z,0.77
2023-01-09T19:18:28.571Z,1.10
2023-01-09T19:20:55.433Z,1.38
2023-01-09T19:23:24.670Z,0.82
2023-01-09T19:25:53.817Z,1.13
2023-01-09T19:28:20.752Z,0.77
2023-01-09T19:30:47.374Z,1.00
2023-01-09T19:33:14.148Z,0.98
2023-01-09T19:35:40.758Z,0.95
2023-01-09T19:38:07.451Z,0.90
2023-01-09T19:40:35.455Z,0.98
2023-01-09T19:43:02.061Z,0.93
2023-01-09T19:45:28.772Z,1.00
2023-01-09T19:47:56.408Z,0.75
2023-01-09T19:50:23.016Z,1.00
2023-01-09T19:52:50.748Z,0.82
2023-01-09T19:55:17.467Z,0.75
2023-01-09T19:57:45.025Z,0.65
2023-01-09T20:00:12.743Z,0.90
2023-01-09T20:02:40.567Z,0.98
2023-01-09T20:05:07.749Z,0.90
2023-01-09T20:07:34.812Z,1.13
2023-01-09T20:10:01.584Z,1.17
2023-01-09T20:12:28.377Z,1.02
2023-01-09T20:14:55.024Z,0.90
2023-01-09T20:17:21.662Z,0.65
2023-01-09T20:19:48.245Z,0.90
2023-01-09T20:22:14.841Z,0.90
2023-01-09T20:24:41.789Z,0.60
2023-01-09T20:27:08.480Z,1.00
2023-01-09T20:29:35.164Z,1.00
2023-01-09T20:32:05.459Z,0.90
2023-01-09T20:34:32.186Z,0.77
2023-01-09T20:36:58.893Z,0.80
2023-01-09T20:39:25.517Z,0.93
2023-01-09T20:41:52.192Z,0.80
2023-01-09T20:44:19.389Z,1.15
2023-01-09T20:46:49.408Z,1.20
2023-01-09T20:49:18.317Z,1.00
2023-01-09T20:51:47.617Z,1.08
2023-01-09T20:54:15.826Z,1.10
2023-01-09T20:56:42.759Z,0.80
2023-01-09T20:59:16.875Z,1.05
2023-01-09T21:01:44.098Z,0.75
2023-01-09T21:04:10.836Z,1.27
2023-01-09T21:06:38.112Z,0.90
2023-01-09T21:09:05.588Z,1.00
2023-01-09T21:11:32.643Z,1.25
2023-01-09T21:13:59.876Z,1.20
2023-01-09T21:16:26.784Z,0.90
2023-01-09T21:18:54.380Z,0.90
2023-01-09T21:21:24.172Z,1.02
2023-01-09T21:23:53.519Z,0.90
2023-01-09T21:26:22.607Z,0.82
2023-01-09T21:28:50.876Z,0.75
2023-01-09T21:31:20.275Z,0.93
2023-01-09T21:33:48.053Z,0.90
2023-01-09T21:36:16.041Z,0.90
2023-01-09T21:38:42.922Z,0.80
2023-01-09T21:41:32.518Z,1.27
2023-01-09T21:44:17.954Z,1.00
2023-01-09T21:46:55.845Z,1.02
2023-01-09T21:49:25.355Z,1.20
2023-01-09T21:51:53.875Z,1.20
2023-01-09T21:54:23.036Z,1.30
2023-01-09T21:56:50.804Z,1.63
2023-01-09T21:59:17.869Z,1.83
2023-01-09T22:01:45.096Z,1.73
2023-01-09T22:04:17.030Z,1.88
2023-01-09T22:06:44.065Z,1.60
2023-01-09T22:09:11.172Z,1.48
2023-01-09T22:11:40.211Z,1.60
2023-01-09T22:14:07.223Z,1.73
2023-01-09T22:16:34.008Z,1.40
2023-01-09T22:19:00.846Z,1.50
2023-01-09T22:21:27.517Z,1.48
2023-01-09T22:23:54.403Z,1.50
2023-01-09T22:26:21.759Z,1.40
2023-01-09T22:28:48.971Z,1.75
2023-01-09T22:31:18.517Z,1.60
2023-01-09T22:33:53.613Z,1.50
2023-01-09T22:36:20.797Z,1.80
2023-01-09T22:38:47.900Z,1.63
2023-01-09T22:41:15.797Z,3.78
2023-01-09T22:43:42.424Z,5.88
2023-01-09T22:46:11.513Z,7.70
2023-01-09T22:48:39.275Z,9.07
2023-01-09T22:51:11.420Z,8.02
2023-01-09T22:56:08.381Z,7.75
2023-01-09T22:58:35.304Z,7.93
2023-01-09T23:01:02.727Z,7.55
2023-01-09T23:03:29.451Z,7.47
2023-01-09T23:06:06.819Z,7.50
2023-01-09T23:08:34.189Z,7.57
2023-01-09T23:11:02.262Z,7.13
2023-01-09T23:13:29.020Z,6.80
2023-01-09T23:15:55.699Z,6.55
2023-01-09T23:18:22.583Z,7.30
2023-01-09T23:20:53.906Z,6.60
2023-01-09T23:23:21.391Z,7.40
2023-01-09T23:25:49.808Z,6.85
2023-01-09T23:28:16.802Z,6.65
2023-01-09T23:30:43.835Z,6.18
2023-01-09T23:33:10.592Z,6.15
2023-01-09T23:35:37.347Z,6.63
2023-01-09T23:38:04.062Z,6.80
2023-01-09T23:40:30.860Z,6.45
2023-01-09T23:43:09.632Z,6.13
2023-01-09T23:45:44.483Z,5.57
2023-01-09T23:48:13.696Z,6.32
2023-01-09T23:50:44.592Z,5.35
2023-01-09T23:53:11.205Z,5.97
2023-01-09T23:55:37.869Z,5.18
2023-01-09T23:58:04.493Z,6.25
